createdAt,value
2022-11-02T00:01:21.096Z,90046.91
2022-11-02T00:03:48.533Z,90047.34
2022-11-02T00:06:15.488Z,90044.03
2022-11-02T00:08:42.269Z,90046.28
2022-11-02T00:11:09.325Z,90049.38
2022-11-02T00:13:36.129Z,90050.44
2022-11-02T00:16:05.842Z,90043.84
2022-11-02T00:18:34.887Z,90054.09
2022-11-02T00:21:02.937Z,90050.88
2022-11-02T00:23:30.563Z,90043.59
2022-11-02T00:26:02.217Z,90043.00
2022-11-02T00:28:29.944Z,90048.81
2022-11-02T00:30:56.625Z,90038.63
2022-11-02T00:33:23.441Z,90031.19
2022-11-02T00:35:50.312Z,90028.44
2022-11-02T00:38:17.053Z,90022.53
2022-11-02T00:40:43.775Z,90023.59
2022-11-02T00:43:10.514Z,90020.50
2022-11-02T00:45:37.368Z,90023.25
2022-11-02T00:48:04.897Z,90021.16
2022-11-02T00:50:31.950Z,90024.81
2022-11-02T00:52:58.614Z,90019.78
2022-11-02T00:55:25.965Z,90021.38
2022-11-02T00:57:52.753Z,90018.97
2022-11-02T01:00:19.790Z,90019.97
2022-11-02T01:02:46.680Z,90012.41
2022-11-02T01:05:13.533Z,90013.81
2022-11-02T01:07:40.283Z,90017.41
2022-11-02T01:10:09.016Z,90022.38
2022-11-02T01:12:40.317Z,90019.66
2022-11-02T01:15:08.589Z,90021.66
2022-11-02T01:17:35.408Z,90024.69
2022-11-02T01:20:02.467Z,90023.34
2022-11-02T01:22:29.197Z,90020.25
2022-11-02T01:24:55.936Z,90025.09
2022-11-02T01:27:22.983Z,90023.06
2022-11-02T01:29:49.888Z,90015.00
2022-11-02T01:32:16.563Z,90004.88
2022-11-02T01:34:43.411Z,90014.28
2022-11-02T01:37:10.426Z,90015.16
2022-11-02T01:39:37.161Z,90018.06
2022-11-02T01:42:04.140Z,90017.78
2022-11-02T01:44:35.866Z,90019.25
2022-11-02T01:47:05.615Z,90019.84
2022-11-02T01:49:35.995Z,90023.66
2022-11-02T01:52:21.341Z,90023.56
2022-11-02T01:54:55.937Z,90019.72
2022-11-02T01:57:23.188Z,90022.34
2022-11-02T02:00:10.045Z,90019.25
2022-11-02T02:03:00.235Z,90026.59
2022-11-02T02:05:28.069Z,90033.25
2022-11-02T02:07:55.920Z,90025.91
2022-11-02T02:10:22.810Z,90027.47
2022-11-02T02:12:50.069Z,90027.22
2022-11-02T02:15:17.001Z,90020.38
2022-11-02T02:18:16.756Z,90030.50
2022-11-02T02:21:08.127Z,90030.09
2022-11-02T02:23:54.958Z,90035.16
2022-11-02T02:26:46.967Z,90031.75
2022-11-02T02:29:24.716Z,90029.81
2022-11-02T02:32:13.661Z,90032.13
2022-11-02T02:34:56.397Z,90037.88
2022-11-02T02:37:28.123Z,90034.41
2022-11-02T02:40:05.382Z,90041.53
2022-11-02T02:42:36.931Z,90044.13
2022-11-02T02:45:25.282Z,90038.59
2022-11-02T02:48:01.035Z,90042.81
2022-11-02T02:50:34.157Z,90052.34
2022-11-02T02:53:04.307Z,90044.91
2022-11-02T02:55:36.930Z,90034.31
2022-11-02T02:58:07.531Z,90049.50
2022-11-02T03:00:35.627Z,90039.94
2022-11-02T03:03:04.874Z,90036.72
2022-11-02T03:05:35.032Z,90036.44
2022-11-02T03:08:07.696Z,90039.94
2022-11-02T03:10:53.659Z,90037.84
2022-11-02T03:14:00.549Z,90033.06
2022-11-02T03:16:42.955Z,90038.50
2022-11-02T03:19:15.462Z,90039.13
2022-11-02T03:21:45.035Z,90034.09
2022-11-02T03:24:26.293Z,90031.94
2022-11-02T03:27:23.499Z,90037.28
2022-11-02T03:30:04.419Z,90037.59
2022-11-02T03:33:06.504Z,90032.25
2022-11-02T03:35:51.480Z,90031.56
2022-11-02T03:38:24.277Z,90027.00
2022-11-02T03:40:54.859Z,90025.47
2022-11-02T03:43:23.018Z,90022.19
2022-11-02T03:45:54.259Z,90019.69
2022-11-02T03:48:24.208Z,90019.53
2022-11-02T03:50:53.506Z,90028.50
2022-11-02T03:53:28.132Z,90024.72
2022-11-02T03:56:00.654Z,90021.72
2022-11-02T03:58:27.448Z,90018.03
2022-11-02T04:00:58.568Z,90027.03
2022-11-02T04:03:25.309Z,90026.88
2022-11-02T04:05:52.132Z,90027.56
2022-11-02T04:08:33.094Z,90018.03
2022-11-02T04:10:59.934Z,90025.47
2022-11-02T04:13:26.655Z,90025.53
2022-11-02T04:15:53.464Z,90018.53
2022-11-02T04:18:20.256Z,90023.31
2022-11-02T04:20:51.280Z,90023.31
2022-11-02T04:23:19.320Z,90018.53
2022-11-02T04:25:46.150Z,90017.78
2022-11-02T04:28:12.877Z,90019.56
2022-11-02T04:30:39.685Z,90022.78
2022-11-02T04:33:06.531Z,90020.34
2022-11-02T04:35:34.642Z,90014.13
2022-11-02T04:38:02.161Z,90027.97
2022-11-02T04:40:29.393Z,90026.06
2022-11-02T04:42:56.159Z,90029.16
2022-11-02T04:45:22.876Z,90021.94
2022-11-02T04:47:49.780Z,90023.25
2022-11-02T04:50:16.718Z,90023.81
2022-11-02T04:52:43.525Z,90030.00
2022-11-02T04:55:10.727Z,90038.69
2022-11-02T04:57:37.551Z,90032.53
2022-11-02T05:00:05.009Z,90035.19
2022-11-02T05:02:31.926Z,90044.63
2022-11-02T05:04:58.858Z,90048.03
2022-11-02T05:07:25.580Z,90053.47
2022-11-02T05:09:52.442Z,90049.22
2022-11-02T05:12:19.263Z,90053.06
2022-11-02T05:14:46.050Z,90056.28
2022-11-02T05:17:12.851Z,90057.28
2022-11-02T05:19:39.628Z,90058.59
2022-11-02T05:22:06.319Z,90073.06
2022-11-02T05:24:33.139Z,90074.53
2022-11-02T05:26:59.938Z,90074.84
2022-11-02T05:29:27.032Z,90071.94
2022-11-02T05:31:53.851Z,90071.31
2022-11-02T05:34:20.637Z,90069.41
2022-11-02T05:36:50.555Z,90077.78
2022-11-02T05:39:17.339Z,90080.78
2022-11-02T05:41:44.222Z,90077.50
2022-11-02T05:44:10.975Z,90076.94
2022-11-02T05:46:37.781Z,90077.38
2022-11-02T05:49:04.625Z,90082.50
2022-11-02T05:51:31.409Z,90082.66
2022-11-02T05:53:58.295Z,90078.22
2022-11-02T05:56:25.430Z,90076.94
2022-11-02T05:58:54.774Z,90084.47
2022-11-02T06:01:21.785Z,90094.91
2022-11-02T06:03:53.142Z,90090.47
2022-11-02T06:06:20.655Z,90103.44
2022-11-02T06:08:47.542Z,90096.66
2022-11-02T06:11:15.056Z,90092.53
2022-11-02T06:13:42.510Z,90089.91
2022-11-02T06:16:12.120Z,90093.75
2022-11-02T06:18:39.479Z,90092.09
2022-11-02T06:21:06.800Z,90098.47
2022-11-02T06:23:33.921Z,90085.47
2022-11-02T06:26:02.137Z,90093.69
2022-11-02T06:28:30.096Z,90102.22
2022-11-02T06:30:57.727Z,90101.59
2022-11-02T06:33:24.473Z,90092.13
2022-11-02T06:35:53.466Z,90100.34
2022-11-02T06:38:20.776Z,90101.06
2022-11-02T06:40:59.071Z,90105.75
2022-11-02T06:43:26.409Z,90105.97
2022-11-02T06:45:59.515Z,90100.50
2022-11-02T06:48:34.339Z,90099.13
2022-11-02T06:51:03.107Z,90090.81
2022-11-02T06:53:29.969Z,90092.19
2022-11-02T06:56:01.337Z,90085.28
2022-11-02T06:58:28.304Z,90085.19
2022-11-02T07:01:02.907Z,90089.63
2022-11-02T07:03:33.298Z,90089.38
2022-11-02T07:06:00.731Z,90085.81
2022-11-02T07:08:28.231Z,90088.13
2022-11-02T07:10:55.522Z,90091.91
2022-11-02T07:13:22.424Z,90090.63
2022-11-02T07:15:52.242Z,90094.16
2022-11-02T07:18:18.986Z,90082.09
2022-11-02T07:20:46.775Z,90083.97
2022-11-02T07:23:13.666Z,90082.13
2022-11-02T07:25:40.508Z,90077.84
2022-11-02T07:28:07.575Z,90081.56
2022-11-02T07:30:35.186Z,90083.59
2022-11-02T07:33:02.560Z,90079.97
2022-11-02T07:35:29.862Z,90068.00
2022-11-02T07:37:58.459Z,90067.25
2022-11-02T07:40:25.677Z,90065.41
2022-11-02T07:42:52.641Z,90062.47
2022-11-02T07:45:20.554Z,90055.38
2022-11-02T07:47:48.167Z,90057.03
2022-11-02T07:50:17.993Z,90045.91
2022-11-02T07:52:46.753Z,90049.50
2022-11-02T07:55:14.826Z,90049.13
2022-11-02T07:57:41.733Z,90056.25
2022-11-02T08:00:09.135Z,90057.13
2022-11-02T08:02:36.116Z,90057.59
2022-11-02T08:05:03.017Z,90063.00
2022-11-02T08:07:29.875Z,90050.06
2022-11-02T08:09:56.714Z,90061.28
2022-11-02T08:12:23.582Z,90050.19
2022-11-02T08:14:50.521Z,90048.84
2022-11-02T08:17:17.281Z,90044.38
2022-11-02T08:19:44.031Z,90045.50
2022-11-02T08:22:10.994Z,90035.09
2022-11-02T08:24:37.744Z,90040.94
2022-11-02T08:27:04.492Z,90034.50
2022-11-02T08:29:31.734Z,90034.00
2022-11-02T08:31:58.487Z,90035.06
2022-11-02T08:34:25.265Z,90022.59
2022-11-02T08:36:52.299Z,90021.38
2022-11-02T08:39:19.324Z,90025.00
2022-11-02T08:41:46.137Z,90018.75
2022-11-02T08:44:13.052Z,90025.69
2022-11-02T08:46:39.805Z,90013.88
2022-11-02T08:49:06.534Z,90021.19
2022-11-02T08:51:33.503Z,90012.84
2022-11-02T08:54:00.401Z,90012.69
2022-11-02T08:56:27.161Z,90006.66
2022-11-02T08:58:53.972Z,90012.56
2022-11-02T09:01:20.836Z,90000.31
2022-11-02T09:03:47.560Z,89996.47
2022-11-02T09:06:14.407Z,89990.59
2022-11-02T09:08:41.231Z,89993.53
2022-11-02T09:11:08.060Z,89990.41
2022-11-02T09:13:35.436Z,89984.56
2022-11-02T09:16:02.297Z,89986.94
2022-11-02T09:18:29.108Z,89978.13
2022-11-02T09:20:56.150Z,89976.66
2022-11-02T09:23:23.722Z,89977.41
2022-11-02T09:25:51.027Z,89975.22
2022-11-02T09:28:18.235Z,89968.41
2022-11-02T09:30:45.787Z,89966.03
2022-11-02T09:33:13.034Z,89961.66
2022-11-02T09:35:42.823Z,89958.72
2022-11-02T09:38:09.649Z,89964.81
2022-11-02T09:41:09.210Z,89966.56
2022-11-02T09:44:02.881Z,89962.41
2022-11-02T09:46:39.952Z,89955.84
2022-11-02T09:49:14.542Z,89951.47
2022-11-02T09:51:52.133Z,89934.13
2022-11-02T09:54:18.817Z,89942.19
2022-11-02T09:56:46.894Z,89937.78
2022-11-02T09:59:20.093Z,89937.09
2022-11-02T10:01:49.571Z,89925.13
2022-11-02T10:04:44.079Z,89927.81
2022-11-02T10:07:19.818Z,89925.88
2022-11-02T10:09:58.770Z,89929.75
2022-11-02T10:12:50.705Z,89921.97
2022-11-02T10:16:06.940Z,89921.00
2022-11-02T10:18:35.977Z,89909.78
2022-11-02T10:21:09.475Z,89919.25
2022-11-02T10:23:51.175Z,89909.00
2022-11-02T10:26:29.673Z,89909.97
2022-11-02T10:29:04.708Z,89912.41
2022-11-02T10:31:33.912Z,89910.03
2022-11-02T10:34:25.964Z,89905.63
2022-11-02T10:37:20.182Z,89903.19
2022-11-02T10:40:05.433Z,89901.25
2022-11-02T10:42:52.911Z,89893.16
2022-11-02T10:45:37.729Z,89898.75
2022-11-02T10:48:32.394Z,89894.41
2022-11-02T10:51:16.429Z,89884.91
2022-11-02T10:53:48.116Z,89884.88
2022-11-02T10:56:30.617Z,89887.78
2022-11-02T10:59:00.434Z,89882.13
2022-11-02T11:01:29.420Z,89896.53
2022-11-02T11:04:01.047Z,89889.69
2022-11-02T11:06:41.408Z,89888.00
2022-11-02T11:09:26.100Z,89885.81
2022-11-02T11:11:59.387Z,89885.31
2022-11-02T11:20:38.227Z,89866.25
2022-11-02T11:23:21.986Z,89874.03
2022-11-02T11:26:00.708Z,89855.75
2022-11-02T11:28:52.133Z,89863.63
2022-11-02T11:31:19.587Z,89861.63
2022-11-02T11:33:46.351Z,89863.81
2022-11-02T11:36:23.211Z,89851.38
2022-11-02T11:38:51.290Z,89859.88
2022-11-02T11:41:18.532Z,89863.44
2022-11-02T11:43:47.315Z,89865.41
2022-11-02T11:46:16.332Z,89862.59
2022-11-02T11:48:43.031Z,89857.19
2022-11-02T11:51:28.466Z,89853.09
2022-11-02T11:54:18.032Z,89847.72
2022-11-02T11:56:45.371Z,89844.75
2022-11-02T11:59:44.084Z,89849.91
2022-11-02T12:02:40.948Z,89848.25
2022-11-02T12:05:18.445Z,89846.97
2022-11-02T12:08:33.955Z,89841.34
2022-11-02T12:11:30.538Z,89841.50
2022-11-02T12:14:29.799Z,89845.75
2022-11-02T12:17:11.416Z,89842.34
2022-11-02T12:20:05.222Z,89840.47
2022-11-02T12:22:38.492Z,89834.09
2022-11-02T12:25:32.588Z,89837.00
2022-11-02T12:28:31.382Z,89843.06
2022-11-02T12:31:03.833Z,89836.50
2022-11-02T12:34:06.484Z,89846.28
2022-11-02T12:37:35.444Z,89841.38
2022-11-02T12:40:07.552Z,89839.13
2022-11-02T12:42:57.695Z,89834.75
2022-11-02T12:45:41.429Z,89840.38
2022-11-02T12:48:09.686Z,89846.25
2022-11-02T12:50:36.450Z,89844.78
2022-11-02T12:53:37.874Z,89834.03
2022-11-02T12:56:09.183Z,89835.41
2022-11-02T12:58:39.168Z,89828.44
2022-11-02T13:01:32.068Z,89833.53
2022-11-02T13:04:04.781Z,89831.38
2022-11-02T13:06:44.448Z,89828.72
2022-11-02T13:09:19.389Z,89827.00
2022-11-02T13:12:00.974Z,89833.59
2022-11-02T13:14:34.769Z,89837.28
2022-11-02T13:17:06.919Z,89834.09
2022-11-02T13:19:40.816Z,89828.28
2022-11-02T13:22:11.082Z,89827.03
2022-11-02T13:24:47.939Z,89830.97
2022-11-02T13:27:36.276Z,89828.78
2022-11-02T13:30:14.177Z,89837.81
2022-11-02T13:33:02.925Z,89827.09
2022-11-02T13:35:35.316Z,89833.19
2022-11-02T13:38:26.697Z,89830.50
2022-11-02T13:41:28.762Z,89835.66
2022-11-02T13:44:16.765Z,89830.75
2022-11-02T13:46:58.567Z,89828.56
2022-11-02T13:49:50.537Z,89826.88
2022-11-02T13:52:27.262Z,89829.56
2022-11-02T13:54:59.162Z,89832.50
2022-11-02T13:57:36.976Z,89825.19
2022-11-02T14:00:08.119Z,89830.31
2022-11-02T14:02:41.594Z,89822.53
2022-11-02T14:05:08.875Z,89833.75
2022-11-02T14:07:40.462Z,89827.88
2022-11-02T14:10:17.482Z,89832.28
2022-11-02T14:12:49.237Z,89829.09
2022-11-02T14:15:15.912Z,89822.03
2022-11-02T14:17:54.764Z,89827.91
2022-11-02T14:20:33.581Z,89829.09
2022-11-02T14:23:09.576Z,89827.16
2022-11-02T14:25:45.377Z,89825.22
2022-11-02T14:28:21.274Z,89821.28
2022-11-02T14:30:50.101Z,89830.56
2022-11-02T14:33:39.572Z,89833.47
2022-11-02T14:36:44.873Z,89832.25
2022-11-02T14:40:02.529Z,89831.00
2022-11-02T14:42:56.537Z,89830.50
2022-11-02T14:45:46.818Z,89828.31
2022-11-02T14:48:16.608Z,89828.31
2022-11-02T14:51:04.326Z,89821.97
2022-11-02T14:53:35.508Z,89831.22
2022-11-02T14:56:02.853Z,89828.06
2022-11-02T14:58:48.639Z,89833.91
2022-11-02T15:01:15.738Z,89830.94
2022-11-02T15:03:43.172Z,89826.06
2022-11-02T15:06:20.178Z,89829.47
2022-11-02T15:08:56.816Z,89825.09
2022-11-02T15:11:49.939Z,89832.13
2022-11-02T15:14:35.380Z,89834.75
2022-11-02T15:17:22.695Z,89831.34
2022-11-02T15:19:52.601Z,89831.81
2022-11-02T15:22:31.485Z,89841.28
2022-11-02T15:25:03.237Z,89846.66
2022-11-02T15:27:30.725Z,89846.63
2022-11-02T15:29:58.356Z,89844.91
2022-11-02T15:32:28.841Z,89854.88
2022-11-02T15:34:57.960Z,89856.78
2022-11-02T15:37:27.228Z,89854.78
2022-11-02T15:39:59.856Z,89858.06
2022-11-02T15:42:42.959Z,89857.00
2022-11-02T15:45:46.774Z,89858.19
2022-11-02T15:48:29.083Z,89863.72
2022-11-02T15:51:14.746Z,89870.72
2022-11-02T15:53:47.352Z,89862.69
2022-11-02T15:56:48.256Z,89868.53
2022-11-02T16:00:07.960Z,89872.44
2022-11-02T16:02:41.722Z,89863.59
2022-11-02T16:05:18.138Z,89870.09
2022-11-02T16:08:05.225Z,89881.81
2022-11-02T16:10:34.188Z,89874.53
2022-11-02T16:13:22.431Z,89867.47
2022-11-02T16:16:01.976Z,89880.56
2022-11-02T16:18:40.228Z,89880.78
2022-11-02T16:21:11.476Z,89876.59
2022-11-02T16:23:41.363Z,89882.84
2022-11-02T16:26:16.500Z,89885.72
2022-11-02T16:28:49.069Z,89888.34
2022-11-02T16:31:28.476Z,89882.50
2022-11-02T16:33:58.668Z,89883.78
2022-11-02T16:36:45.856Z,89885.66
2022-11-02T16:39:37.687Z,89888.34
2022-11-02T16:42:15.400Z,89891.97
2022-11-02T16:44:42.297Z,89889.28
2022-11-02T16:47:09.093Z,89890.50
2022-11-02T16:50:00.642Z,89886.88
2022-11-02T16:52:35.147Z,89896.09
2022-11-02T16:55:03.229Z,89894.63
2022-11-02T16:57:44.166Z,89899.31
2022-11-02T17:00:19.543Z,89889.09
2022-11-02T17:02:47.362Z,89893.38
2022-11-02T17:05:22.502Z,89890.34
2022-11-02T17:08:22.923Z,89892.94
2022-11-02T17:10:56.122Z,89886.13
2022-11-02T17:13:25.868Z,89887.28
2022-11-02T17:15:53.608Z,89894.00
2022-11-02T17:18:23.559Z,89898.50
2022-11-02T17:21:13.113Z,89890.25
2022-11-02T17:23:42.829Z,89892.00
2022-11-02T17:26:30.860Z,89891.31
2022-11-02T17:29:26.680Z,89885.97
2022-11-02T17:31:56.622Z,89895.41
2022-11-02T17:34:23.551Z,89893.03
2022-11-02T17:36:50.644Z,89895.25
2022-11-02T17:39:19.884Z,89888.63
2022-11-02T17:41:55.447Z,89883.50
2022-11-02T17:44:22.383Z,89892.00
2022-11-02T17:46:49.233Z,89894.41
2022-11-02T17:49:16.097Z,89888.13
2022-11-02T17:51:43.980Z,89889.47
2022-11-02T17:54:14.872Z,89888.00
2022-11-02T17:56:41.812Z,89895.28
2022-11-02T17:59:09.504Z,89894.56
2022-11-02T18:01:36.425Z,89900.16
2022-11-02T18:04:03.343Z,89894.38
2022-11-02T18:06:30.146Z,89894.06
2022-11-02T18:08:58.552Z,89891.13
2022-11-02T18:11:26.655Z,89888.34
2022-11-02T18:13:53.764Z,89885.00
2022-11-02T18:16:20.745Z,89885.97
2022-11-02T18:18:47.731Z,89894.63
2022-11-02T18:21:14.789Z,89890.25
2022-11-02T18:23:43.156Z,89900.72
2022-11-02T18:26:11.976Z,89898.78
2022-11-02T18:28:39.273Z,89893.44
2022-11-02T18:31:07.642Z,89900.94
2022-11-02T18:33:34.623Z,89901.91
2022-11-02T18:36:07.020Z,89895.59
2022-11-02T18:38:33.780Z,89906.47
2022-11-02T18:41:15.738Z,89897.97
2022-11-02T18:43:44.901Z,89899.19
2022-11-02T18:46:24.373Z,89910.56
2022-11-02T18:48:54.944Z,89896.72
2022-11-02T18:51:22.752Z,89895.16
2022-11-02T18:54:08.268Z,89897.50
2022-11-02T18:56:35.545Z,89900.66
2022-11-02T18:59:02.269Z,89886.53
2022-11-02T19:01:31.607Z,89891.88
2022-11-02T19:04:00.269Z,89886.09
2022-11-02T19:06:30.786Z,89890.72
2022-11-02T19:08:58.207Z,89885.09
2022-11-02T19:11:25.415Z,89890.84
2022-11-02T19:13:53.079Z,89883.28
2022-11-02T19:16:20.006Z,89887.72
2022-11-02T19:18:47.655Z,89896.63
2022-11-02T19:21:14.660Z,89898.72
2022-11-02T19:23:41.453Z,89895.25
2022-11-02T19:26:08.627Z,89894.81
2022-11-02T19:28:35.432Z,89898.25
2022-11-02T19:31:06.930Z,89898.06
2022-11-02T19:33:34.299Z,89898.06
2022-11-02T19:36:04.257Z,89889.78
2022-11-02T19:38:36.494Z,89905.44
2022-11-02T19:41:06.042Z,89902.66
2022-11-02T19:43:32.950Z,89902.72
2022-11-02T19:46:04.782Z,89899.56
2022-11-02T19:48:32.635Z,89903.66
2022-11-02T19:51:07.874Z,89903.22
2022-11-02T19:53:37.477Z,89899.09
2022-11-02T19:56:06.177Z,89899.66
2022-11-02T19:58:33.209Z,89896.03
2022-11-02T20:01:11.479Z,89897.84
2022-11-02T20:03:41.722Z,89906.09
2022-11-02T20:06:12.476Z,89902.97
2022-11-02T20:08:41.266Z,89910.72
2022-11-02T20:11:12.591Z,89910.72
2022-11-02T20:13:42.233Z,89905.78
2022-11-02T20:16:11.120Z,89911.66
2022-11-02T20:18:39.630Z,89916.44
2022-11-02T20:21:12.061Z,89913.50
2022-11-02T20:23:39.294Z,89910.84
2022-11-02T20:26:09.066Z,89916.81
2022-11-02T20:28:41.400Z,89913.00
2022-11-02T20:31:10.703Z,89922.34
2022-11-02T20:33:39.163Z,89917.59
2022-11-02T20:36:10.113Z,89921.25
2022-11-02T20:38:37.372Z,89918.88
2022-11-02T20:41:09.223Z,89911.81
2022-11-02T20:43:37.621Z,89910.34
2022-11-02T20:46:36.632Z,89909.97
2022-11-02T20:49:13.907Z,89911.16
2022-11-02T20:51:52.922Z,89911.66
2022-11-02T20:54:20.904Z,89915.53
2022-11-02T20:56:48.568Z,89910.50
2022-11-02T20:59:15.733Z,89909.94
2022-11-02T21:01:42.854Z,89898.44
2022-11-02T21:04:11.034Z,89899.19
2022-11-02T21:06:40.773Z,89903.41
2022-11-02T21:09:12.094Z,89897.16
2022-11-02T21:11:39.441Z,89897.44
2022-11-02T21:14:06.307Z,89889.25
2022-11-02T21:16:34.503Z,89892.66
2022-11-02T21:19:01.395Z,89896.59
2022-11-02T21:21:28.166Z,89898.81
2022-11-02T21:23:55.919Z,89894.47
2022-11-02T21:26:22.743Z,89891.06
2022-11-02T21:28:50.631Z,89896.66
2022-11-02T21:31:20.355Z,89896.34
2022-11-02T21:33:49.162Z,89902.09
2022-11-02T21:36:18.002Z,89904.75
2022-11-02T21:38:45.378Z,89906.03
2022-11-02T21:41:18.232Z,89905.22
2022-11-02T21:43:45.007Z,89907.28
2022-11-02T21:46:11.791Z,89904.59
2022-11-02T21:48:39.041Z,89909.75
2022-11-02T21:51:10.817Z,89900.56
2022-11-02T21:53:40.145Z,89909.81
2022-11-02T21:56:13.260Z,89908.97
2022-11-02T21:58:44.777Z,89904.28
2022-11-02T22:01:18.769Z,89904.47
2022-11-02T22:03:46.564Z,89915.28
2022-11-02T22:06:14.152Z,89911.16
2022-11-02T22:08:41.588Z,89906.09
2022-11-02T22:11:11.860Z,89907.13
2022-11-02T22:13:40.253Z,89906.72
2022-11-02T22:16:37.185Z,89910.84
2022-11-02T22:19:06.659Z,89912.13
2022-11-02T22:21:39.240Z,89903.44
2022-11-02T22:24:06.958Z,89907.03
2022-11-02T22:26:35.889Z,89905.53
2022-11-02T22:29:04.221Z,89915.75
2022-11-02T22:31:34.107Z,89914.22
2022-11-02T22:34:02.877Z,89913.25
2022-11-02T22:36:32.618Z,89903.56
2022-11-02T22:39:01.196Z,89901.84
2022-11-02T22:41:29.208Z,89899.78
2022-11-02T22:44:03.375Z,89907.84
2022-11-02T22:46:32.206Z,89917.28
2022-11-02T22:48:59.889Z,89914.31
2022-11-02T22:51:28.387Z,89915.25
2022-11-02T22:53:55.812Z,89919.47
2022-11-02T22:56:23.942Z,89920.13
2022-11-02T22:58:50.893Z,89916.50
2022-11-02T23:01:20.293Z,89911.19
2022-11-02T23:03:48.406Z,89915.91
2022-11-02T23:06:16.022Z,89917.63
2022-11-02T23:08:44.789Z,89916.16
2022-11-02T23:11:13.155Z,89918.97
2022-11-02T23:13:40.638Z,89915.50
2022-11-02T23:16:08.434Z,89923.50
2022-11-02T23:18:35.166Z,89932.81
2022-11-02T23:21:01.989Z,89933.09
2022-11-02T23:23:28.854Z,89935.69
2022-11-02T23:25:56.717Z,89927.72
2022-11-02T23:30:55.991Z,89916.69
2022-11-02T23:33:27.867Z,89911.91
2022-11-02T23:35:54.712Z,89918.31
2022-11-02T23:38:21.597Z,89927.97
2022-11-02T23:40:48.451Z,89928.00
2022-11-02T23:43:15.126Z,89919.91
2022-11-02T23:45:41.851Z,89921.75
2022-11-02T23:48:09.341Z,89916.47
2022-11-02T23:50:36.656Z,89912.78
2022-11-02T23:53:04.936Z,89926.91
2022-11-02T23:55:31.868Z,89929.72
2022-11-02T23:57:58.532Z,89929.69
